sensor_id;sensor_type;location;lat;lon;timestamp;P1;durP1;ratioP1;P2;durP2;ratioP2
18893;SDS011;9579;49.488;8.226;2024-02-16T00:00:00;5.67;;;5.10;;
18893;SDS011;9579;49.488;8.226;2024-02-16T00:02:48;5.40;;;4.90;;
18893;SDS011;9579;49.488;8.226;2024-02-16T00:05:35;5.10;;;4.60;;
18893;SDS011;9579;49.488;8.226;2024-02-16T00:08:24;7.07;;;5.20;;
18893;SDS011;9579;49.488;8.226;2024-02-16T00:11:12;7.07;;;5.20;;
18893;SDS011;9579;49.488;8.226;2024-02-16T00:14:00;6.13;;;5.50;;
18893;SDS011;9579;49.488;8.226;2024-02-16T00:16:50;6.20;;;5.27;;
18893;SDS011;9579;49.488;8.226;2024-02-16T00:19:37;5.83;;;5.33;;
18893;SDS011;9579;49.488;8.226;2024-02-16T00:22:25;7.60;;;5.80;;
18893;SDS011;9579;49.488;8.226;2024-02-16T00:25:16;6.80;;;5.70;;
18893;SDS011;9579;49.488;8.226;2024-02-16T00:28:04;6.63;;;5.80;;
18893;SDS011;9579;49.488;8.226;2024-02-16T00:30:51;7.27;;;6.57;;
18893;SDS011;9579;49.488;8.226;2024-02-16T00:33:39;6.47;;;5.87;;
18893;SDS011;9579;49.488;8.226;2024-02-16T00:36:27;6.83;;;6.13;;
18893;SDS011;9579;49.488;8.226;2024-02-16T00:39:15;7.10;;;5.90;;
18893;SDS011;9579;49.488;8.226;2024-02-16T00:42:07;8.70;;;6.70;;
18893;SDS011;9579;49.488;8.226;2024-02-16T00:44:54;7.20;;;6.50;;
18893;SDS011;9579;49.488;8.226;2024-02-16T00:47:41;7.35;;;6.50;;
18893;SDS011;9579;49.488;8.226;2024-02-16T00:50:30;7.40;;;6.37;;
18893;SDS011;9579;49.488;8.226;2024-02-16T00:53:17;6.70;;;6.10;;
18893;SDS011;9579;49.488;8.226;2024-02-16T00:56:07;7.60;;;6.40;;
18893;SDS011;9579;49.488;8.226;2024-02-16T00:58:56;6.80;;;6.20;;
18893;SDS011;9579;49.488;8.226;2024-02-16T01:01:44;7.47;;;6.70;;
18893;SDS011;9579;49.488;8.226;2024-02-16T01:04:32;7.60;;;6.90;;
18893;SDS011;9579;49.488;8.226;2024-02-16T01:07:21;7.57;;;6.87;;
18893;SDS011;9579;49.488;8.226;2024-02-16T01:10:09;8.07;;;7.27;;
18893;SDS011;9579;49.488;8.226;2024-02-16T01:12:58;7.57;;;6.90;;
18893;SDS011;9579;49.488;8.226;2024-02-16T01:15:47;7.07;;;6.23;;
18893;SDS011;9579;49.488;8.226;2024-02-16T01:18:35;8.57;;;7.23;;
18893;SDS011;9579;49.488;8.226;2024-02-16T01:21:23;7.30;;;6.70;;
18893;SDS011;9579;49.488;8.226;2024-02-16T01:24:10;8.07;;;6.80;;
18893;SDS011;9579;49.488;8.226;2024-02-16T01:27:00;7.57;;;6.87;;
18893;SDS011;9579;49.488;8.226;2024-02-16T01:29:48;7.57;;;6.87;;
18893;SDS011;9579;49.488;8.226;2024-02-16T01:32:37;7.13;;;6.50;;
18893;SDS011;9579;49.488;8.226;2024-02-16T01:35:25;7.03;;;6.33;;
18893;SDS011;9579;49.488;8.226;2024-02-16T01:38:13;7.50;;;6.77;;
18893;SDS011;9579;49.488;8.226;2024-02-16T01:41:02;9.10;;;7.23;;
18893;SDS011;9579;49.488;8.226;2024-02-16T01:43:53;7.57;;;6.83;;
18893;SDS011;9579;49.488;8.226;2024-02-16T01:46:43;7.40;;;6.65;;
18893;SDS011;9579;49.488;8.226;2024-02-16T01:49:35;7.87;;;7.17;;
18893;SDS011;9579;49.488;8.226;2024-02-16T01:52:27;7.63;;;6.50;;
18893;SDS011;9579;49.488;8.226;2024-02-16T01:55:30;7.63;;;6.93;;
18893;SDS011;9579;49.488;8.226;2024-02-16T01:58:19;8.07;;;7.27;;
18893;SDS011;9579;49.488;8.226;2024-02-16T02:01:07;7.23;;;6.53;;
18893;SDS011;9579;49.488;8.226;2024-02-16T02:03:56;9.23;;;7.70;;
18893;SDS011;9579;49.488;8.226;2024-02-16T02:06:49;6.80;;;6.20;;
18893;SDS011;9579;49.488;8.226;2024-02-16T02:09:38;6.63;;;6.03;;
18893;SDS011;9579;49.488;8.226;2024-02-16T02:12:31;6.83;;;6.23;;
18893;SDS011;9579;49.488;8.226;2024-02-16T02:15:30;6.77;;;6.07;;
18893;SDS011;9579;49.488;8.226;2024-02-16T02:18:22;7.00;;;6.30;;
18893;SDS011;9579;49.488;8.226;2024-02-16T02:21:15;7.20;;;6.37;;
18893;SDS011;9579;49.488;8.226;2024-02-16T02:24:07;7.23;;;6.53;;
18893;SDS011;9579;49.488;8.226;2024-02-16T02:26:57;9.53;;;6.70;;
18893;SDS011;9579;49.488;8.226;2024-02-16T02:29:45;9.27;;;6.70;;
18893;SDS011;9579;49.488;8.226;2024-02-16T02:32:33;6.93;;;6.23;;
18893;SDS011;9579;49.488;8.226;2024-02-16T02:35:24;8.33;;;6.50;;
18893;SDS011;9579;49.488;8.226;2024-02-16T02:38:12;7.27;;;6.13;;
18893;SDS011;9579;49.488;8.226;2024-02-16T02:41:01;6.90;;;6.20;;
18893;SDS011;9579;49.488;8.226;2024-02-16T02:43:50;7.10;;;6.40;;
18893;SDS011;9579;49.488;8.226;2024-02-16T02:46:38;7.20;;;6.50;;
18893;SDS011;9579;49.488;8.226;2024-02-16T02:49:26;7.47;;;6.70;;
18893;SDS011;9579;49.488;8.226;2024-02-16T02:52:15;7.23;;;6.53;;
18893;SDS011;9579;49.488;8.226;2024-02-16T02:55:03;7.57;;;6.23;;
18893;SDS011;9579;49.488;8.226;2024-02-16T02:57:53;7.10;;;6.50;;
18893;SDS011;9579;49.488;8.226;2024-02-16T03:00:43;6.90;;;6.20;;
18893;SDS011;9579;49.488;8.226;2024-02-16T03:03:31;7.30;;;6.60;;
18893;SDS011;9579;49.488;8.226;2024-02-16T03:06:21;7.50;;;6.80;;
18893;SDS011;9579;49.488;8.226;2024-02-16T03:09:10;8.47;;;7.40;;
18893;SDS011;9579;49.488;8.226;2024-02-16T03:11:58;7.33;;;6.53;;
18893;SDS011;9579;49.488;8.226;2024-02-16T03:14:49;7.13;;;6.43;;
18893;SDS011;9579;49.488;8.226;2024-02-16T03:17:36;7.93;;;6.83;;
18893;SDS011;9579;49.488;8.226;2024-02-16T03:20:25;7.83;;;7.03;;
18893;SDS011;9579;49.488;8.226;2024-02-16T03:23:15;7.27;;;6.57;;
18893;SDS011;9579;49.488;8.226;2024-02-16T03:26:13;7.17;;;6.47;;
18893;SDS011;9579;49.488;8.226;2024-02-16T03:29:02;7.00;;;6.40;;
18893;SDS011;9579;49.488;8.226;2024-02-16T03:31:56;6.50;;;5.90;;
18893;SDS011;9579;49.488;8.226;2024-02-16T03:34:44;8.33;;;7.07;;
18893;SDS011;9579;49.488;8.226;2024-02-16T03:37:33;6.43;;;5.83;;
18893;SDS011;9579;49.488;8.226;2024-02-16T03:40:24;7.17;;;6.10;;
18893;SDS011;9579;49.488;8.226;2024-02-16T03:43:13;8.63;;;7.00;;
18893;SDS011;9579;49.488;8.226;2024-02-16T03:46:01;6.63;;;6.03;;
18893;SDS011;9579;49.488;8.226;2024-02-16T03:48:55;6.80;;;5.90;;
18893;SDS011;9579;49.488;8.226;2024-02-16T03:51:45;7.07;;;6.37;;
18893;SDS011;9579;49.488;8.226;2024-02-16T03:54:33;6.73;;;6.13;;
18893;SDS011;9579;49.488;8.226;2024-02-16T03:57:21;7.20;;;6.50;;
18893;SDS011;9579;49.488;8.226;2024-02-16T04:00:09;7.93;;;7.13;;
18893;SDS011;9579;49.488;8.226;2024-02-16T04:02:57;8.00;;;7.20;;
18893;SDS011;9579;49.488;8.226;2024-02-16T04:05:46;7.93;;;7.00;;
18893;SDS011;9579;49.488;8.226;2024-02-16T04:08:34;7.20;;;6.50;;
18893;SDS011;9579;49.488;8.226;2024-02-16T04:11:22;7.87;;;6.60;;
18893;SDS011;9579;49.488;8.226;2024-02-16T04:14:09;7.37;;;6.67;;
18893;SDS011;9579;49.488;8.226;2024-02-16T04:16:57;6.77;;;6.23;;
18893;SDS011;9579;49.488;8.226;2024-02-16T04:19:45;7.13;;;6.53;;
18893;SDS011;9579;49.488;8.226;2024-02-16T04:22:34;7.77;;;7.00;;
18893;SDS011;9579;49.488;8.226;2024-02-16T04:25:23;8.60;;;7.50;;
18893;SDS011;9579;49.488;8.226;2024-02-16T04:28:10;8.13;;;7.33;;
18893;SDS011;9579;49.488;8.226;2024-02-16T04:30:59;8.23;;;7.13;;
18893;SDS011;9579;49.488;8.226;2024-02-16T04:33:46;7.17;;;6.47;;
18893;SDS011;9579;49.488;8.226;2024-02-16T04:36:34;7.47;;;6.67;;
18893;SDS011;9579;49.488;8.226;2024-02-16T04:39:23;7.30;;;6.70;;
18893;SDS011;9579;49.488;8.226;2024-02-16T04:42:11;9.10;;;6.70;;
18893;SDS011;9579;49.488;8.226;2024-02-16T04:44:58;8.00;;;7.20;;
18893;SDS011;9579;49.488;8.226;2024-02-16T04:47:48;7.50;;;6.80;;
18893;SDS011;9579;49.488;8.226;2024-02-16T04:50:36;7.13;;;6.43;;
18893;SDS011;9579;49.488;8.226;2024-02-16T04:53:32;7.57;;;6.63;;
18893;SDS011;9579;49.488;8.226;2024-02-16T04:56:22;7.57;;;6.80;;
18893;SDS011;9579;49.488;8.226;2024-02-16T04:59:10;7.37;;;6.67;;
18893;SDS011;9579;49.488;8.226;2024-02-16T05:01:58;7.30;;;6.60;;
18893;SDS011;9579;49.488;8.226;2024-02-16T05:04:46;7.77;;;7.07;;
18893;SDS011;9579;49.488;8.226;2024-02-16T05:07:34;7.23;;;6.57;;
18893;SDS011;9579;49.488;8.226;2024-02-16T05:10:22;8.73;;;7.97;;
18893;SDS011;9579;49.488;8.226;2024-02-16T05:13:11;7.73;;;7.03;;
18893;SDS011;9579;49.488;8.226;2024-02-16T05:15:59;7.80;;;7.10;;
18893;SDS011;9579;49.488;8.226;2024-02-16T05:18:47;7.43;;;6.73;;
18893;SDS011;9579;49.488;8.226;2024-02-16T05:21:35;8.07;;;7.27;;
18893;SDS011;9579;49.488;8.226;2024-02-16T05:24:22;7.57;;;6.87;;
18893;SDS011;9579;49.488;8.226;2024-02-16T05:27:11;7.50;;;6.80;;
18893;SDS011;9579;49.488;8.226;2024-02-16T05:30:00;8.10;;;7.00;;
18893;SDS011;9579;49.488;8.226;2024-02-16T05:32:47;10.43;;;7.23;;
18893;SDS011;9579;49.488;8.226;2024-02-16T05:35:36;8.43;;;7.63;;
18893;SDS011;9579;49.488;8.226;2024-02-16T05:38:25;8.90;;;8.10;;
18893;SDS011;9579;49.488;8.226;2024-02-16T05:41:26;9.40;;;8.43;;
18893;SDS011;9579;49.488;8.226;2024-02-16T05:44:13;9.47;;;8.43;;
18893;SDS011;9579;49.488;8.226;2024-02-16T05:47:03;8.13;;;7.30;;
18893;SDS011;9579;49.488;8.226;2024-02-16T05:49:51;8.67;;;7.77;;
18893;SDS011;9579;49.488;8.226;2024-02-16T05:52:38;8.93;;;8.03;;
18893;SDS011;9579;49.488;8.226;2024-02-16T05:55:26;7.87;;;7.03;;
18893;SDS011;9579;49.488;8.226;2024-02-16T05:58:13;9.33;;;8.33;;
18893;SDS011;9579;49.488;8.226;2024-02-16T06:01:00;9.57;;;8.67;;
18893;SDS011;9579;49.488;8.226;2024-02-16T06:03:50;13.53;;;11.00;;
18893;SDS011;9579;49.488;8.226;2024-02-16T06:06:37;11.53;;;10.17;;
18893;SDS011;9579;49.488;8.226;2024-02-16T06:09:25;11.57;;;10.37;;
18893;SDS011;9579;49.488;8.226;2024-02-16T06:12:19;13.13;;;11.33;;
18893;SDS011;9579;49.488;8.226;2024-02-16T06:15:06;11.87;;;10.67;;
18893;SDS011;9579;49.488;8.226;2024-02-16T06:17:55;13.07;;;11.70;;
18893;SDS011;9579;49.488;8.226;2024-02-16T06:20:44;11.53;;;10.33;;
18893;SDS011;9579;49.488;8.226;2024-02-16T06:23:32;10.20;;;9.13;;
18893;SDS011;9579;49.488;8.226;2024-02-16T06:26:19;7.63;;;6.93;;
18893;SDS011;9579;49.488;8.226;2024-02-16T06:29:10;8.00;;;7.30;;
18893;SDS011;9579;49.488;8.226;2024-02-16T06:32:04;7.50;;;6.50;;
18893;SDS011;9579;49.488;8.226;2024-02-16T06:34:52;10.43;;;9.23;;
18893;SDS011;9579;49.488;8.226;2024-02-16T06:37:42;9.30;;;8.40;;
18893;SDS011;9579;49.488;8.226;2024-02-16T06:40:30;8.20;;;7.50;;
18893;SDS011;9579;49.488;8.226;2024-02-16T06:43:17;9.30;;;8.40;;
18893;SDS011;9579;49.488;8.226;2024-02-16T06:46:06;9.00;;;8.07;;
18893;SDS011;9579;49.488;8.226;2024-02-16T06:48:53;8.83;;;7.90;;
18893;SDS011;9579;49.488;8.226;2024-02-16T06:51:41;8.80;;;8.00;;
18893;SDS011;9579;49.488;8.226;2024-02-16T06:54:31;8.70;;;7.90;;
18893;SDS011;9579;49.488;8.226;2024-02-16T06:57:19;10.17;;;9.10;;
18893;SDS011;9579;49.488;8.226;2024-02-16T07:00:07;10.63;;;9.63;;
18893;SDS011;9579;49.488;8.226;2024-02-16T07:02:55;12.60;;;11.17;;
18893;SDS011;9579;49.488;8.226;2024-02-16T07:05:42;13.70;;;12.30;;
18893;SDS011;9579;49.488;8.226;2024-02-16T07:08:29;13.07;;;11.77;;
18893;SDS011;9579;49.488;8.226;2024-02-16T07:11:18;13.20;;;11.90;;
18893;SDS011;9579;49.488;8.226;2024-02-16T07:14:06;12.40;;;11.10;;
18893;SDS011;9579;49.488;8.226;2024-02-16T07:16:53;12.07;;;10.87;;
18893;SDS011;9579;49.488;8.226;2024-02-16T07:24:52;10.70;;;9.80;;
18893;SDS011;9579;49.488;8.226;2024-02-16T07:27:42;10.40;;;9.40;;
18893;SDS011;9579;49.488;8.226;2024-02-16T07:30:30;11.73;;;10.63;;
18893;SDS011;9579;49.488;8.226;2024-02-16T07:33:23;11.87;;;10.77;;
18893;SDS011;9579;49.488;8.226;2024-02-16T07:36:22;12.43;;;11.23;;
18893;SDS011;9579;49.488;8.226;2024-02-16T07:39:12;9.43;;;8.60;;
18893;SDS011;9579;49.488;8.226;2024-02-16T07:42:00;10.67;;;9.57;;
18893;SDS011;9579;49.488;8.226;2024-02-16T07:44:49;10.30;;;9.30;;
18893;SDS011;9579;49.488;8.226;2024-02-16T07:47:37;11.20;;;10.10;;
18893;SDS011;9579;49.488;8.226;2024-02-16T07:50:24;10.90;;;9.80;;
18893;SDS011;9579;49.488;8.226;2024-02-16T07:53:11;9.77;;;8.90;;
18893;SDS011;9579;49.488;8.226;2024-02-16T07:55:59;9.70;;;8.73;;
18893;SDS011;9579;49.488;8.226;2024-02-16T07:58:46;10.50;;;9.57;;
18893;SDS011;9579;49.488;8.226;2024-02-16T08:01:34;9.77;;;8.87;;
18893;SDS011;9579;49.488;8.226;2024-02-16T08:04:25;9.67;;;8.67;;
18893;SDS011;9579;49.488;8.226;2024-02-16T08:07:12;9.10;;;8.30;;
18893;SDS011;9579;49.488;8.226;2024-02-16T08:10:00;8.47;;;7.70;;
18893;SDS011;9579;49.488;8.226;2024-02-16T08:12:48;9.17;;;8.37;;
18893;SDS011;9579;49.488;8.226;2024-02-16T08:15:36;8.83;;;8.13;;
18893;SDS011;9579;49.488;8.226;2024-02-16T08:18:24;9.90;;;8.93;;
18893;SDS011;9579;49.488;8.226;2024-02-16T08:21:11;9.37;;;8.47;;
18893;SDS011;9579;49.488;8.226;2024-02-16T08:23:59;9.47;;;8.50;;
18893;SDS011;9579;49.488;8.226;2024-02-16T08:26:46;9.53;;;8.53;;
18893;SDS011;9579;49.488;8.226;2024-02-16T08:29:33;8.37;;;7.57;;
18893;SDS011;9579;49.488;8.226;2024-02-16T08:32:20;8.02;;;7.25;;
18893;SDS011;9579;49.488;8.226;2024-02-16T08:35:09;9.15;;;8.25;;
18893;SDS011;9579;49.488;8.226;2024-02-16T08:37:56;9.45;;;8.50;;
18893;SDS011;9579;49.488;8.226;2024-02-16T08:40:43;9.80;;;8.80;;
18893;SDS011;9579;49.488;8.226;2024-02-16T08:43:30;8.25;;;7.55;;
18893;SDS011;9579;49.488;8.226;2024-02-16T08:46:17;8.70;;;7.90;;
18893;SDS011;9579;49.488;8.226;2024-02-16T08:49:04;8.87;;;7.67;;
18893;SDS011;9579;49.488;8.226;2024-02-16T08:51:52;9.90;;;8.90;;
18893;SDS011;9579;49.488;8.226;2024-02-16T08:54:39;8.07;;;7.38;;
18893;SDS011;9579;49.488;8.226;2024-02-16T08:57:28;6.88;;;6.25;;
18893;SDS011;9579;49.488;8.226;2024-02-16T09:00:17;7.82;;;7.13;;
18893;SDS011;9579;49.488;8.226;2024-02-16T09:03:05;7.70;;;7.00;;
18893;SDS011;9579;49.488;8.226;2024-02-16T09:05:53;8.63;;;7.82;;
18893;SDS011;9579;49.488;8.226;2024-02-16T09:08:42;9.40;;;8.50;;
18893;SDS011;9579;49.488;8.226;2024-02-16T09:11:29;8.45;;;7.65;;
18893;SDS011;9579;49.488;8.226;2024-02-16T09:14:16;9.13;;;7.57;;
18893;SDS011;9579;49.488;8.226;2024-02-16T09:17:03;8.70;;;7.47;;
18893;SDS011;9579;49.488;8.226;2024-02-16T09:19:50;8.55;;;7.70;;
18893;SDS011;9579;49.488;8.226;2024-02-16T09:22:38;8.30;;;7.50;;
18893;SDS011;9579;49.488;8.226;2024-02-16T09:25:28;8.30;;;7.57;;
18893;SDS011;9579;49.488;8.226;2024-02-16T09:28:15;8.70;;;7.90;;
18893;SDS011;9579;49.488;8.226;2024-02-16T09:31:03;8.68;;;7.80;;
18893;SDS011;9579;49.488;8.226;2024-02-16T09:33:50;8.35;;;7.65;;
18893;SDS011;9579;49.488;8.226;2024-02-16T09:36:38;8.32;;;7.53;;
18893;SDS011;9579;49.488;8.226;2024-02-16T09:39:25;8.48;;;7.68;;
18893;SDS011;9579;49.488;8.226;2024-02-16T09:42:14;8.38;;;7.57;;
18893;SDS011;9579;49.488;8.226;2024-02-16T09:45:03;7.50;;;6.75;;
18893;SDS011;9579;49.488;8.226;2024-02-16T09:47:51;7.38;;;6.78;;
18893;SDS011;9579;49.488;8.226;2024-02-16T09:50:40;8.82;;;7.28;;
18893;SDS011;9579;49.488;8.226;2024-02-16T09:53:28;8.90;;;7.40;;
18893;SDS011;9579;49.488;8.226;2024-02-16T09:56:15;7.78;;;6.97;;
18893;SDS011;9579;49.488;8.226;2024-02-16T09:59:03;8.05;;;7.22;;
18893;SDS011;9579;49.488;8.226;2024-02-16T10:01:58;7.80;;;7.03;;
18893;SDS011;9579;49.488;8.226;2024-02-16T10:04:46;6.57;;;5.82;;
18893;SDS011;9579;49.488;8.226;2024-02-16T10:07:33;6.20;;;5.63;;
18893;SDS011;9579;49.488;8.226;2024-02-16T10:10:20;5.47;;;4.97;;
18893;SDS011;9579;49.488;8.226;2024-02-16T10:13:08;5.32;;;4.93;;
18893;SDS011;9579;49.488;8.226;2024-02-16T10:16:08;5.10;;;4.60;;
18893;SDS011;9579;49.488;8.226;2024-02-16T10:19:03;5.40;;;4.28;;
18893;SDS011;9579;49.488;8.226;2024-02-16T10:21:50;4.45;;;3.85;;
18893;SDS011;9579;49.488;8.226;2024-02-16T10:24:38;4.93;;;3.70;;
18893;SDS011;9579;49.488;8.226;2024-02-16T10:27:25;4.88;;;3.40;;
18893;SDS011;9579;49.488;8.226;2024-02-16T10:30:12;4.38;;;3.38;;
18893;SDS011;9579;49.488;8.226;2024-02-16T10:33:01;4.40;;;3.65;;
18893;SDS011;9579;49.488;8.226;2024-02-16T10:35:49;4.63;;;3.08;;
18893;SDS011;9579;49.488;8.226;2024-02-16T10:38:37;3.75;;;3.22;;
18893;SDS011;9579;49.488;8.226;2024-02-16T10:41:28;3.03;;;2.72;;
18893;SDS011;9579;49.488;8.226;2024-02-16T10:44:15;3.22;;;2.70;;
18893;SDS011;9579;49.488;8.226;2024-02-16T10:47:02;3.22;;;2.60;;
18893;SDS011;9579;49.488;8.226;2024-02-16T10:49:52;4.25;;;2.58;;
18893;SDS011;9579;49.488;8.226;2024-02-16T10:52:39;3.15;;;2.35;;
18893;SDS011;9579;49.488;8.226;2024-02-16T10:55:29;3.90;;;2.50;;
18893;SDS011;9579;49.488;8.226;2024-02-16T10:58:16;3.58;;;2.35;;
18893;SDS011;9579;49.488;8.226;2024-02-16T11:01:07;3.88;;;2.80;;
18893;SDS011;9579;49.488;8.226;2024-02-16T11:04:00;6.00;;;2.33;;
18893;SDS011;9579;49.488;8.226;2024-02-16T11:06:51;3.80;;;2.55;;
18893;SDS011;9579;49.488;8.226;2024-02-16T11:09:41;3.20;;;2.55;;
18893;SDS011;9579;49.488;8.226;2024-02-16T11:12:32;4.07;;;2.83;;
18893;SDS011;9579;49.488;8.226;2024-02-16T11:15:26;4.00;;;2.58;;
18893;SDS011;9579;49.488;8.226;2024-02-16T11:18:14;4.95;;;2.95;;
18893;SDS011;9579;49.488;8.226;2024-02-16T11:21:01;4.00;;;2.42;;
18893;SDS011;9579;49.488;8.226;2024-02-16T11:23:50;8.95;;;3.10;;
18893;SDS011;9579;49.488;8.226;2024-02-16T11:26:42;4.60;;;2.53;;
18893;SDS011;9579;49.488;8.226;2024-02-16T11:29:31;4.72;;;2.78;;
18893;SDS011;9579;49.488;8.226;2024-02-16T11:32:19;6.97;;;2.97;;
18893;SDS011;9579;49.488;8.226;2024-02-16T11:35:06;3.58;;;2.70;;
18893;SDS011;9579;49.488;8.226;2024-02-16T11:37:55;12.07;;;3.20;;
18893;SDS011;9579;49.488;8.226;2024-02-16T11:40:43;9.05;;;3.00;;
18893;SDS011;9579;49.488;8.226;2024-02-16T11:43:39;4.15;;;2.75;;
18893;SDS011;9579;49.488;8.226;2024-02-16T11:46:27;6.28;;;3.00;;
18893;SDS011;9579;49.488;8.226;2024-02-16T11:49:14;6.60;;;3.00;;
18893;SDS011;9579;49.488;8.226;2024-02-16T11:52:03;6.20;;;3.20;;
18893;SDS011;9579;49.488;8.226;2024-02-16T11:54:51;4.18;;;3.10;;
18893;SDS011;9579;49.488;8.226;2024-02-16T11:57:39;4.03;;;2.80;;
18893;SDS011;9579;49.488;8.226;2024-02-16T12:00:26;4.32;;;2.30;;
18893;SDS011;9579;49.488;8.226;2024-02-16T12:03:17;4.50;;;2.42;;
18893;SDS011;9579;49.488;8.226;2024-02-16T12:06:06;3.85;;;2.40;;
18893;SDS011;9579;49.488;8.226;2024-02-16T12:08:53;5.88;;;2.75;;
18893;SDS011;9579;49.488;8.226;2024-02-16T12:11:40;5.55;;;2.78;;
18893;SDS011;9579;49.488;8.226;2024-02-16T12:14:29;4.45;;;2.75;;
18893;SDS011;9579;49.488;8.226;2024-02-16T12:17:16;6.15;;;2.92;;
18893;SDS011;9579;49.488;8.226;2024-02-16T12:20:10;7.20;;;3.10;;
18893;SDS011;9579;49.488;8.226;2024-02-16T12:22:57;6.78;;;2.70;;
18893;SDS011;9579;49.488;8.226;2024-02-16T12:25:47;6.78;;;3.10;;
18893;SDS011;9579;49.488;8.226;2024-02-16T12:28:34;3.42;;;2.70;;
18893;SDS011;9579;49.488;8.226;2024-02-16T12:31:23;4.30;;;2.80;;
18893;SDS011;9579;49.488;8.226;2024-02-16T12:34:11;3.63;;;2.58;;
18893;SDS011;9579;49.488;8.226;2024-02-16T12:36:59;5.32;;;2.78;;
18893;SDS011;9579;49.488;8.226;2024-02-16T12:39:46;4.22;;;2.30;;
18893;SDS011;9579;49.488;8.226;2024-02-16T12:42:33;3.40;;;2.45;;
18893;SDS011;9579;49.488;8.226;2024-02-16T12:45:20;6.03;;;2.72;;
18893;SDS011;9579;49.488;8.226;2024-02-16T12:48:08;3.22;;;2.70;;
18893;SDS011;9579;49.488;8.226;2024-02-16T12:50:58;5.13;;;2.85;;
18893;SDS011;9579;49.488;8.226;2024-02-16T12:53:45;4.90;;;2.38;;
18893;SDS011;9579;49.488;8.226;2024-02-16T12:56:32;5.40;;;2.40;;
18893;SDS011;9579;49.488;8.226;2024-02-16T12:59:19;5.38;;;2.90;;
18893;SDS011;9579;49.488;8.226;2024-02-16T13:02:06;5.32;;;2.72;;
18893;SDS011;9579;49.488;8.226;2024-02-16T13:04:54;2.50;;;2.30;;
18893;SDS011;9579;49.488;8.226;2024-02-16T13:07:41;4.88;;;2.78;;
18893;SDS011;9579;49.488;8.226;2024-02-16T13:10:28;2.90;;;2.25;;
18893;SDS011;9579;49.488;8.226;2024-02-16T13:13:16;2.97;;;2.40;;
18893;SDS011;9579;49.488;8.226;2024-02-16T13:16:03;3.92;;;2.50;;
18893;SDS011;9579;49.488;8.226;2024-02-16T13:18:51;4.57;;;2.65;;
18893;SDS011;9579;49.488;8.226;2024-02-16T13:21:39;2.83;;;2.50;;
18893;SDS011;9579;49.488;8.226;2024-02-16T13:24:26;3.45;;;2.55;;
18893;SDS011;9579;49.488;8.226;2024-02-16T13:27:13;4.05;;;2.80;;
18893;SDS011;9579;49.488;8.226;2024-02-16T13:30:00;5.00;;;3.03;;
18893;SDS011;9579;49.488;8.226;2024-02-16T13:32:48;3.70;;;2.40;;
18893;SDS011;9579;49.488;8.226;2024-02-16T13:35:35;3.75;;;2.60;;
18893;SDS011;9579;49.488;8.226;2024-02-16T13:38:23;3.75;;;2.30;;
18893;SDS011;9579;49.488;8.226;2024-02-16T13:41:10;2.70;;;2.28;;
18893;SDS011;9579;49.488;8.226;2024-02-16T13:43:57;3.67;;;2.50;;
18893;SDS011;9579;49.488;8.226;2024-02-16T13:46:45;3.28;;;2.60;;
18893;SDS011;9579;49.488;8.226;2024-02-16T13:49:33;3.42;;;2.50;;
18893;SDS011;9579;49.488;8.226;2024-02-16T13:52:20;2.60;;;2.35;;
18893;SDS011;9579;49.488;8.226;2024-02-16T13:55:10;2.85;;;2.40;;
18893;SDS011;9579;49.488;8.226;2024-02-16T13:57:57;4.70;;;2.45;;
18893;SDS011;9579;49.488;8.226;2024-02-16T14:00:44;3.92;;;2.10;;
18893;SDS011;9579;49.488;8.226;2024-02-16T14:03:32;5.35;;;2.58;;
18893;SDS011;9579;49.488;8.226;2024-02-16T14:06:21;3.80;;;2.70;;
18893;SDS011;9579;49.488;8.226;2024-02-16T14:09:11;3.80;;;2.42;;
18893;SDS011;9579;49.488;8.226;2024-02-16T14:12:03;2.90;;;2.50;;
18893;SDS011;9579;49.488;8.226;2024-02-16T14:14:50;3.03;;;2.58;;
18893;SDS011;9579;49.488;8.226;2024-02-16T14:17:37;3.47;;;2.45;;
18893;SDS011;9579;49.488;8.226;2024-02-16T14:20:25;3.13;;;2.30;;
18893;SDS011;9579;49.488;8.226;2024-02-16T14:23:12;3.20;;;2.30;;
18893;SDS011;9579;49.488;8.226;2024-02-16T14:25:59;2.63;;;2.22;;
18893;SDS011;9579;49.488;8.226;2024-02-16T14:28:48;3.83;;;2.40;;
18893;SDS011;9579;49.488;8.226;2024-02-16T14:31:35;3.17;;;2.40;;
18893;SDS011;9579;49.488;8.226;2024-02-16T14:34:22;2.78;;;2.50;;
18893;SDS011;9579;49.488;8.226;2024-02-16T14:37:09;3.08;;;2.45;;
18893;SDS011;9579;49.488;8.226;2024-02-16T14:39:56;3.72;;;2.50;;
18893;SDS011;9579;49.488;8.226;2024-02-16T14:42:44;3.05;;;2.30;;
18893;SDS011;9579;49.488;8.226;2024-02-16T14:45:33;3.13;;;2.53;;
18893;SDS011;9579;49.488;8.226;2024-02-16T14:48:21;2.35;;;2.15;;
18893;SDS011;9579;49.488;8.226;2024-02-16T14:51:08;3.15;;;2.45;;
18893;SDS011;9579;49.488;8.226;2024-02-16T14:53:55;2.92;;;2.50;;
18893;SDS011;9579;49.488;8.226;2024-02-16T14:56:42;4.15;;;2.60;;
18893;SDS011;9579;49.488;8.226;2024-02-16T14:59:29;3.33;;;2.40;;
18893;SDS011;9579;49.488;8.226;2024-02-16T15:02:17;3.08;;;2.67;;
18893;SDS011;9579;49.488;8.226;2024-02-16T15:05:06;2.75;;;2.47;;
18893;SDS011;9579;49.488;8.226;2024-02-16T15:07:54;3.92;;;2.40;;
18893;SDS011;9579;49.488;8.226;2024-02-16T15:10:41;2.65;;;2.30;;
18893;SDS011;9579;49.488;8.226;2024-02-16T15:13:28;3.72;;;2.70;;
18893;SDS011;9579;49.488;8.226;2024-02-16T15:16:16;2.80;;;2.50;;
18893;SDS011;9579;49.488;8.226;2024-02-16T15:19:05;3.33;;;2.70;;
18893;SDS011;9579;49.488;8.226;2024-02-16T15:21:52;4.32;;;3.67;;
18893;SDS011;9579;49.488;8.226;2024-02-16T15:24:39;26.95;;;24.65;;
18893;SDS011;9579;49.488;8.226;2024-02-16T15:27:26;18.65;;;17.00;;
18893;SDS011;9579;49.488;8.226;2024-02-16T15:30:13;6.10;;;5.50;;
18893;SDS011;9579;49.488;8.226;2024-02-16T15:33:00;5.28;;;4.20;;
18893;SDS011;9579;49.488;8.226;2024-02-16T15:35:49;3.70;;;3.40;;
18893;SDS011;9579;49.488;8.226;2024-02-16T15:38:36;3.67;;;3.38;;
18893;SDS011;9579;49.488;8.226;2024-02-16T15:41:23;4.07;;;3.42;;
18893;SDS011;9579;49.488;8.226;2024-02-16T15:44:10;3.30;;;3.00;;
18893;SDS011;9579;49.488;8.226;2024-02-16T15:46:57;3.10;;;2.60;;
18893;SDS011;9579;49.488;8.226;2024-02-16T15:49:44;3.65;;;3.15;;
18893;SDS011;9579;49.488;8.226;2024-02-16T15:52:32;6.38;;;5.78;;
18893;SDS011;9579;49.488;8.226;2024-02-16T15:55:19;3.42;;;3.13;;
18893;SDS011;9579;49.488;8.226;2024-02-16T15:58:06;2.55;;;2.30;;
18893;SDS011;9579;49.488;8.226;2024-02-16T16:00:53;2.40;;;2.20;;
18893;SDS011;9579;49.488;8.226;2024-02-16T16:03:40;3.80;;;2.63;;
18893;SDS011;9579;49.488;8.226;2024-02-16T16:06:28;2.75;;;2.30;;
18893;SDS011;9579;49.488;8.226;2024-02-16T16:09:17;6.65;;;5.97;;
18893;SDS011;9579;49.488;8.226;2024-02-16T16:12:04;7.22;;;6.55;;
18893;SDS011;9579;49.488;8.226;2024-02-16T16:14:52;4.97;;;4.57;;
18893;SDS011;9579;49.488;8.226;2024-02-16T16:17:39;3.42;;;3.13;;
18893;SDS011;9579;49.488;8.226;2024-02-16T16:20:26;3.78;;;2.80;;
18893;SDS011;9579;49.488;8.226;2024-02-16T16:23:13;4.20;;;2.60;;
18893;SDS011;9579;49.488;8.226;2024-02-16T16:26:04;2.80;;;2.40;;
18893;SDS011;9579;49.488;8.226;2024-02-16T16:28:51;3.85;;;2.47;;
18893;SDS011;9579;49.488;8.226;2024-02-16T16:31:38;2.88;;;2.63;;
18893;SDS011;9579;49.488;8.226;2024-02-16T16:34:25;3.00;;;2.80;;
18893;SDS011;9579;49.488;8.226;2024-02-16T16:37:14;3.03;;;2.72;;
18893;SDS011;9579;49.488;8.226;2024-02-16T16:40:01;3.28;;;2.83;;
18893;SDS011;9579;49.488;8.226;2024-02-16T16:42:50;2.63;;;2.40;;
18893;SDS011;9579;49.488;8.226;2024-02-16T16:45:37;2.92;;;2.47;;
18893;SDS011;9579;49.488;8.226;2024-02-16T16:48:24;3.63;;;2.83;;
18893;SDS011;9579;49.488;8.226;2024-02-16T16:51:11;3.00;;;2.70;;
18893;SDS011;9579;49.488;8.226;2024-02-16T16:53:59;2.45;;;2.25;;
18893;SDS011;9579;49.488;8.226;2024-02-16T16:56:46;2.85;;;2.50;;
18893;SDS011;9579;49.488;8.226;2024-02-16T16:59:34;4.80;;;2.40;;
18893;SDS011;9579;49.488;8.226;2024-02-16T17:02:21;2.92;;;2.70;;
18893;SDS011;9579;49.488;8.226;2024-02-16T17:05:10;2.60;;;2.38;;
18893;SDS011;9579;49.488;8.226;2024-02-16T17:07:57;3.00;;;2.70;;
18893;SDS011;9579;49.488;8.226;2024-02-16T17:10:44;2.50;;;2.30;;
18893;SDS011;9579;49.488;8.226;2024-02-16T17:13:31;2.95;;;2.58;;